sensor_id;sensor_type;location;lat;lon;timestamp;pressure;altitude;pressure_sealevel;temperature;humidity
12626;BME280;6378;42.684;23.372;2022-11-14T00:02:07;96247.25;;;4.41;100.00
12626;BME280;6378;42.684;23.372;2022-11-14T00:04:32;96250.75;;;4.36;100.00
12626;BME280;6378;42.684;23.372;2022-11-14T00:06:58;96244.16;;;4.24;100.00
12626;BME280;6378;42.684;23.372;2022-11-14T00:09:25;96232.50;;;4.15;100.00
12626;BME280;6378;42.684;23.372;2022-11-14T00:11:51;96250.59;;;4.13;100.00
12626;BME280;6378;42.684;23.372;2022-11-14T00:14:16;96239.16;;;4.12;100.00
12626;BME280;6378;42.684;23.372;2022-11-14T00:16:41;96238.91;;;4.09;100.00
12626;BME280;6378;42.684;23.372;2022-11-14T00:19:07;96246.31;;;4.17;100.00
12626;BME280;6378;42.684;23.372;2022-11-14T00:21:32;96243.94;;;4.15;100.00
12626;BME280;6378;42.684;23.372;2022-11-14T00:23:58;96244.72;;;4.16;100.00
12626;BME280;6378;42.684;23.372;2022-11-14T00:26:23;96250.31;;;4.19;100.00
12626;BME280;6378;42.684;23.372;2022-11-14T00:28:48;96248.72;;;4.18;100.00
12626;BME280;6378;42.684;23.372;2022-11-14T00:31:14;96249.75;;;4.22;100.00
12626;BME280;6378;42.684;23.372;2022-11-14T00:33:40;96214.66;;;4.10;100.00
12626;BME280;6378;42.684;23.372;2022-11-14T00:36:05;96249.44;;;4.34;100.00
12626;BME280;6378;42.684;23.372;2022-11-14T00:38:31;96255.13;;;5.24;100.00
12626;BME280;6378;42.684;23.372;2022-11-14T00:40:56;96260.34;;;4.76;100.00
12626;BME280;6378;42.684;23.372;2022-11-14T00:43:21;96260.19;;;4.63;100.00
12626;BME280;6378;42.684;23.372;2022-11-14T00:45:48;96252.84;;;4.45;100.00
12626;BME280;6378;42.684;23.372;2022-11-14T00:48:14;96257.41;;;4.39;100.00
12626;BME280;6378;42.684;23.372;2022-11-14T00:50:40;96250.53;;;4.28;100.00
12626;BME280;6378;42.684;23.372;2022-11-14T00:53:05;96234.91;;;4.06;100.00
12626;BME280;6378;42.684;23.372;2022-11-14T00:55:31;96226.47;;;3.94;100.00
12626;BME280;6378;42.684;23.372;2022-11-14T00:57:56;96228.84;;;4.01;100.00
12626;BME280;6378;42.684;23.372;2022-11-14T01:00:22;96250.31;;;4.19;100.00
12626;BME280;6378;42.684;23.372;2022-11-14T01:02:47;96248.44;;;4.25;100.00
12626;BME280;6378;42.684;23.372;2022-11-14T01:05:12;96246.22;;;4.37;100.00
12626;BME280;6378;42.684;23.372;2022-11-14T01:07:38;96249.66;;;4.43;100.00
12626;BME280;6378;42.684;23.372;2022-11-14T01:10:04;96241.84;;;4.51;100.00
12626;BME280;6378;42.684;23.372;2022-11-14T01:12:30;96235.94;;;4.59;100.00
12626;BME280;6378;42.684;23.372;2022-11-14T01:14:55;96217.88;;;4.46;100.00
12626;BME280;6378;42.684;23.372;2022-11-14T01:17:20;96242.50;;;4.72;100.00
12626;BME280;6378;42.684;23.372;2022-11-14T01:19:46;96240.88;;;4.76;100.00
12626;BME280;6378;42.684;23.372;2022-11-14T01:22:11;96237.31;;;4.86;100.00
12626;BME280;6378;42.684;23.372;2022-11-14T01:24:37;96227.19;;;4.88;100.00
12626;BME280;6378;42.684;23.372;2022-11-14T01:27:02;96232.47;;;4.93;100.00
12626;BME280;6378;42.684;23.372;2022-11-14T01:29:28;96227.34;;;5.01;100.00
12626;BME280;6378;42.684;23.372;2022-11-14T01:31:54;96215.81;;;5.06;100.00
12626;BME280;6378;42.684;23.372;2022-11-14T01:34:19;96220.31;;;5.10;100.00
12626;BME280;6378;42.684;23.372;2022-11-14T01:36:44;96225.38;;;5.12;100.00
12626;BME280;6378;42.684;23.372;2022-11-14T01:39:10;96219.69;;;5.18;100.00
12626;BME280;6378;42.684;23.372;2022-11-14T01:41:35;96218.91;;;5.18;100.00
12626;BME280;6378;42.684;23.372;2022-11-14T01:44:01;96192.03;;;5.09;100.00
12626;BME280;6378;42.684;23.372;2022-11-14T01:46:37;96202.78;;;5.28;100.00
12626;BME280;6378;42.684;23.372;2022-11-14T01:49:13;96197.44;;;5.28;100.00
12626;BME280;6378;42.684;23.372;2022-11-14T01:52:16;96203.53;;;5.34;100.00
12626;BME280;6378;42.684;23.372;2022-11-14T01:54:36;96185.53;;;5.20;100.00
12626;BME280;6378;42.684;23.372;2022-11-14T01:57:04;96192.09;;;5.28;100.00
12626;BME280;6378;42.684;23.372;2022-11-14T01:59:44;96172.81;;;5.12;100.00
12626;BME280;6378;42.684;23.372;2022-11-14T02:02:18;96182.69;;;5.12;100.00
12626;BME280;6378;42.684;23.372;2022-11-14T02:04:47;96149.63;;;5.08;100.00
12626;BME280;6378;42.684;23.372;2022-11-14T02:07:15;96186.91;;;5.18;100.00
12626;BME280;6378;42.684;23.372;2022-11-14T02:09:44;96190.06;;;5.20;100.00
12626;BME280;6378;42.684;23.372;2022-11-14T02:12:12;96184.63;;;5.30;100.00
12626;BME280;6378;42.684;23.372;2022-11-14T02:14:40;96177.50;;;5.20;100.00
12626;BME280;6378;42.684;23.372;2022-11-14T02:17:06;96194.09;;;5.17;100.00
12626;BME280;6378;42.684;23.372;2022-11-14T02:19:51;96182.63;;;5.17;100.00
12626;BME280;6378;42.684;23.372;2022-11-14T02:22:17;96175.16;;;5.14;100.00
12626;BME280;6378;42.684;23.372;2022-11-14T02:24:43;96136.72;;;4.91;100.00
12626;BME280;6378;42.684;23.372;2022-11-14T02:27:10;96193.53;;;5.20;100.00
12626;BME280;6378;42.684;23.372;2022-11-14T02:29:37;96173.75;;;4.98;100.00
12626;BME280;6378;42.684;23.372;2022-11-14T02:32:02;96192.41;;;4.98;100.00
12626;BME280;6378;42.684;23.372;2022-11-14T02:34:28;96181.13;;;4.77;100.00
12626;BME280;6378;42.684;23.372;2022-11-14T02:36:54;96193.34;;;4.83;100.00
12626;BME280;6378;42.684;23.372;2022-11-14T02:39:19;96189.25;;;4.62;100.00
12626;BME280;6378;42.684;23.372;2022-11-14T02:41:45;96183.69;;;4.58;100.00
12626;BME280;6378;42.684;23.372;2022-11-14T02:44:10;96184.50;;;4.59;100.00
12626;BME280;6378;42.684;23.372;2022-11-14T02:46:36;96184.19;;;4.60;100.00
12626;BME280;6378;42.684;23.372;2022-11-14T02:49:01;96186.53;;;4.67;100.00
12626;BME280;6378;42.684;23.372;2022-11-14T02:51:27;96153.38;;;4.49;100.00
12626;BME280;6378;42.684;23.372;2022-11-14T02:53:52;96186.28;;;4.68;100.00
12626;BME280;6378;42.684;23.372;2022-11-14T02:56:18;96189.53;;;4.60;100.00
12626;BME280;6378;42.684;23.372;2022-11-14T02:58:43;96172.72;;;4.60;100.00
12626;BME280;6378;42.684;23.372;2022-11-14T03:01:08;96179.44;;;4.57;100.00
12626;BME280;6378;42.684;23.372;2022-11-14T03:03:34;96183.75;;;4.48;100.00
12626;BME280;6378;42.684;23.372;2022-11-14T03:06:00;96184.56;;;4.49;100.00
12626;BME280;6378;42.684;23.372;2022-11-14T03:08:26;96180.63;;;4.36;100.00
12626;BME280;6378;42.684;23.372;2022-11-14T03:10:52;96171.69;;;4.22;100.00
12626;BME280;6378;42.684;23.372;2022-11-14T03:13:18;96182.31;;;4.27;100.00
12626;BME280;6378;42.684;23.372;2022-11-14T03:15:44;96179.22;;;4.15;100.00
12626;BME280;6378;42.684;23.372;2022-11-14T03:18:10;96183.13;;;4.22;100.00
12626;BME280;6378;42.684;23.372;2022-11-14T03:20:35;96177.88;;;4.12;100.00
12626;BME280;6378;42.684;23.372;2022-11-14T03:23:01;96164.59;;;4.07;100.00
12626;BME280;6378;42.684;23.372;2022-11-14T03:25:26;96180.50;;;4.17;100.00
12626;BME280;6378;42.684;23.372;2022-11-14T03:27:51;96178.91;;;4.16;100.00
12626;BME280;6378;42.684;23.372;2022-11-14T03:30:17;96159.41;;;3.82;100.00
12626;BME280;6378;42.684;23.372;2022-11-14T03:32:43;96183.59;;;3.90;100.00
12626;BME280;6378;42.684;23.372;2022-11-14T03:35:08;96191.34;;;3.82;100.00
12626;BME280;6378;42.684;23.372;2022-11-14T03:37:34;96191.34;;;3.82;100.00
12626;BME280;6378;42.684;23.372;2022-11-14T03:39:59;96154.97;;;3.62;100.00
12626;BME280;6378;42.684;23.372;2022-11-14T03:42:25;96178.34;;;3.75;100.00
12626;BME280;6378;42.684;23.372;2022-11-14T03:44:50;96179.66;;;3.78;100.00
12626;BME280;6378;42.684;23.372;2022-11-14T03:47:16;96180.75;;;3.72;100.00
12626;BME280;6378;42.684;23.372;2022-11-14T03:49:41;96162.47;;;3.55;100.00
12626;BME280;6378;42.684;23.372;2022-11-14T03:52:10;96175.97;;;3.69;100.00
12626;BME280;6378;42.684;23.372;2022-11-14T03:54:35;96151.88;;;3.40;100.00
12626;BME280;6378;42.684;23.372;2022-11-14T03:57:01;96077.84;;;2.98;100.00
12626;BME280;6378;42.684;23.372;2022-11-14T03:59:26;96177.41;;;3.51;100.00
12626;BME280;6378;42.684;23.372;2022-11-14T04:01:51;96170.97;;;3.52;100.00
12626;BME280;6378;42.684;23.372;2022-11-14T04:04:17;96175.56;;;3.41;100.00
12626;BME280;6378;42.684;23.372;2022-11-14T04:06:42;96172.59;;;3.48;100.00
12626;BME280;6378;42.684;23.372;2022-11-14T04:09:09;96164.16;;;3.36;100.00
12626;BME280;6378;42.684;23.372;2022-11-14T04:11:34;96166.50;;;3.37;100.00
12626;BME280;6378;42.684;23.372;2022-11-14T04:14:00;96174.78;;;3.36;100.00
12626;BME280;6378;42.684;23.372;2022-11-14T04:16:25;96171.84;;;3.37;100.00
12626;BME280;6378;42.684;23.372;2022-11-14T04:18:51;96180.88;;;3.46;100.00
12626;BME280;6378;42.684;23.372;2022-11-14T04:21:16;96179.41;;;3.79;100.00
12626;BME280;6378;42.684;23.372;2022-11-14T04:23:41;96169.97;;;3.38;100.00
12626;BME280;6378;42.684;23.372;2022-11-14T04:26:07;96178.53;;;3.25;100.00
12626;BME280;6378;42.684;23.372;2022-11-14T04:28:32;96172.41;;;3.24;100.00
12626;BME280;6378;42.684;23.372;2022-11-14T04:30:58;96168.97;;;3.19;100.00
12626;BME280;6378;42.684;23.372;2022-11-14T04:33:24;96160.47;;;3.22;100.00
12626;BME280;6378;42.684;23.372;2022-11-14T04:35:50;96159.97;;;3.10;100.00
12626;BME280;6378;42.684;23.372;2022-11-14T04:38:15;96163.69;;;3.09;100.00
12626;BME280;6378;42.684;23.372;2022-11-14T04:40:47;96163.16;;;3.07;100.00
12626;BME280;6378;42.684;23.372;2022-11-14T04:43:13;96146.66;;;3.04;100.00
12626;BME280;6378;42.684;23.372;2022-11-14T04:45:39;96158.63;;;3.12;100.00
12626;BME280;6378;42.684;23.372;2022-11-14T04:48:04;96169.50;;;3.21;100.00
12626;BME280;6378;42.684;23.372;2022-11-14T04:50:30;96150.88;;;3.21;100.00
12626;BME280;6378;42.684;23.372;2022-11-14T04:52:55;96163.63;;;3.29;100.00
12626;BME280;6378;42.684;23.372;2022-11-14T04:55:21;96161.53;;;3.21;100.00
12626;BME280;6378;42.684;23.372;2022-11-14T04:57:46;96152.22;;;3.13;100.00
12626;BME280;6378;42.684;23.372;2022-11-14T05:00:12;96160.50;;;3.12;100.00
12626;BME280;6378;42.684;23.372;2022-11-14T05:02:37;96153.00;;;3.19;100.00
12626;BME280;6378;42.684;23.372;2022-11-14T05:05:03;96173.09;;;4.09;100.00
12626;BME280;6378;42.684;23.372;2022-11-14T05:07:28;96175.16;;;3.73;100.00
12626;BME280;6378;42.684;23.372;2022-11-14T05:09:54;96168.06;;;3.54;100.00
12626;BME280;6378;42.684;23.372;2022-11-14T05:12:19;96147.97;;;3.22;100.00
12626;BME280;6378;42.684;23.372;2022-11-14T05:14:45;96175.59;;;3.31;100.00
12626;BME280;6378;42.684;23.372;2022-11-14T05:17:10;96174.25;;;3.29;100.00
12626;BME280;6378;42.684;23.372;2022-11-14T05:19:36;96169.47;;;3.31;100.00
12626;BME280;6378;42.684;23.372;2022-11-14T05:22:01;96166.31;;;3.19;100.00
12626;BME280;6378;42.684;23.372;2022-11-14T05:24:27;96178.56;;;3.20;100.00
12626;BME280;6378;42.684;23.372;2022-11-14T05:26:53;96179.09;;;3.22;100.00
12626;BME280;6378;42.684;23.372;2022-11-14T05:29:18;96182.78;;;3.36;100.00
12626;BME280;6378;42.684;23.372;2022-11-14T05:31:44;96170.00;;;3.28;100.00
12626;BME280;6378;42.684;23.372;2022-11-14T05:34:09;96170.53;;;3.35;100.00
12626;BME280;6378;42.684;23.372;2022-11-14T05:36:35;96176.91;;;3.39;100.00
12626;BME280;6378;42.684;23.372;2022-11-14T05:39:00;96177.22;;;3.27;100.00
12626;BME280;6378;42.684;23.372;2022-11-14T05:41:25;96172.16;;;3.31;100.00
12626;BME280;6378;42.684;23.372;2022-11-14T05:43:51;96181.72;;;3.37;100.00
12626;BME280;6378;42.684;23.372;2022-11-14T05:46:16;96179.06;;;3.32;100.00
12626;BME280;6378;42.684;23.372;2022-11-14T05:48:42;96189.13;;;3.40;100.00
12626;BME280;6378;42.684;23.372;2022-11-14T05:51:10;96188.34;;;3.39;100.00
12626;BME280;6378;42.684;23.372;2022-11-14T05:53:36;96162.31;;;3.26;100.00
12626;BME280;6378;42.684;23.372;2022-11-14T05:56:03;96188.03;;;3.51;100.00
12626;BME280;6378;42.684;23.372;2022-11-14T05:58:30;96191.22;;;3.48;100.00
12626;BME280;6378;42.684;23.372;2022-11-14T06:01:15;96187.50;;;3.49;100.00
12626;BME280;6378;42.684;23.372;2022-11-14T06:03:42;96188.81;;;3.57;100.00
12626;BME280;6378;42.684;23.372;2022-11-14T06:06:10;96191.75;;;3.55;100.00
12626;BME280;6378;42.684;23.372;2022-11-14T06:08:36;96194.50;;;3.30;100.00
12626;BME280;6378;42.684;23.372;2022-11-14T06:11:04;96192.59;;;3.45;100.00
12626;BME280;6378;42.684;23.372;2022-11-14T06:13:31;96179.06;;;3.37;100.00
12626;BME280;6378;42.684;23.372;2022-11-14T06:16:00;96191.19;;;3.58;100.00
12626;BME280;6378;42.684;23.372;2022-11-14T06:18:27;96207.47;;;3.57;100.00
12626;BME280;6378;42.684;23.372;2022-11-14T06:20:53;96187.53;;;3.39;100.00
12626;BME280;6378;42.684;23.372;2022-11-14T06:23:18;96194.66;;;3.59;100.00
12626;BME280;6378;42.684;23.372;2022-11-14T06:25:44;96159.88;;;3.35;100.00
12626;BME280;6378;42.684;23.372;2022-11-14T06:28:09;96201.47;;;3.85;100.00
12626;BME280;6378;42.684;23.372;2022-11-14T06:30:34;96206.25;;;3.88;100.00
12626;BME280;6378;42.684;23.372;2022-11-14T06:33:00;96205.75;;;3.81;100.00
12626;BME280;6378;42.684;23.372;2022-11-14T06:35:26;96197.53;;;3.72;100.00
12626;BME280;6378;42.684;23.372;2022-11-14T06:37:51;96207.06;;;3.83;100.00
12626;BME280;6378;42.684;23.372;2022-11-14T06:40:17;96199.00;;;3.99;100.00
12626;BME280;6378;42.684;23.372;2022-11-14T06:42:42;96204.56;;;4.02;100.00
12626;BME280;6378;42.684;23.372;2022-11-14T06:45:08;96206.41;;;4.07;100.00
12626;BME280;6378;42.684;23.372;2022-11-14T06:47:33;96189.03;;;4.19;100.00
12626;BME280;6378;42.684;23.372;2022-11-14T06:49:59;96200.94;;;4.32;100.00
12626;BME280;6378;42.684;23.372;2022-11-14T06:52:24;96195.19;;;4.54;100.00
12626;BME280;6378;42.684;23.372;2022-11-14T06:54:50;96172.00;;;4.54;100.00
12626;BME280;6378;42.684;23.372;2022-11-14T06:57:17;96189.38;;;4.80;100.00
12626;BME280;6378;42.684;23.372;2022-11-14T06:59:43;96177.78;;;4.61;100.00
12626;BME280;6378;42.684;23.372;2022-11-14T07:02:12;96175.66;;;4.63;100.00
12626;BME280;6378;42.684;23.372;2022-11-14T07:04:37;96183.75;;;4.48;100.00
12626;BME280;6378;42.684;23.372;2022-11-14T07:07:03;96179.16;;;4.59;100.00
12626;BME280;6378;42.684;23.372;2022-11-14T07:09:28;96183.16;;;4.56;100.00
12626;BME280;6378;42.684;23.372;2022-11-14T07:11:54;96176.28;;;4.50;100.00
12626;BME280;6378;42.684;23.372;2022-11-14T07:14:19;96171.97;;;4.59;100.00
12626;BME280;6378;42.684;23.372;2022-11-14T07:16:44;96179.31;;;4.72;100.00
12626;BME280;6378;42.684;23.372;2022-11-14T07:19:11;96183.66;;;4.63;100.00
12626;BME280;6378;42.684;23.372;2022-11-14T07:21:37;96175.97;;;4.57;100.00
12626;BME280;6378;42.684;23.372;2022-11-14T07:24:02;96174.81;;;4.68;100.00
12626;BME280;6378;42.684;23.372;2022-11-14T07:26:28;96163.16;;;4.59;100.00
12626;BME280;6378;42.684;23.372;2022-11-14T07:28:53;96170.53;;;4.67;100.00
12626;BME280;6378;42.684;23.372;2022-11-14T07:31:19;96166.00;;;4.67;100.00
12626;BME280;6378;42.684;23.372;2022-11-14T07:33:45;96172.59;;;4.75;100.00
12626;BME280;6378;42.684;23.372;2022-11-14T07:36:12;96183.88;;;4.96;100.00
12626;BME280;6378;42.684;23.372;2022-11-14T07:38:38;96175.72;;;4.87;100.00
12626;BME280;6378;42.684;23.372;2022-11-14T07:43:30;96169.44;;;5.02;100.00
12626;BME280;6378;42.684;23.372;2022-11-14T07:46:04;96166.41;;;5.08;100.00
12626;BME280;6378;42.684;23.372;2022-11-14T07:48:31;96160.22;;;5.18;100.00
12626;BME280;6378;42.684;23.372;2022-11-14T07:51:03;96163.59;;;5.23;100.00
12626;BME280;6378;42.684;23.372;2022-11-14T07:53:29;96160.38;;;5.27;100.00
12626;BME280;6378;42.684;23.372;2022-11-14T07:55:56;96146.16;;;5.07;100.00
12626;BME280;6378;42.684;23.372;2022-11-14T07:58:25;96157.13;;;5.06;100.00
12626;BME280;6378;42.684;23.372;2022-11-14T08:00:51;96163.56;;;5.00;100.00
12626;BME280;6378;42.684;23.372;2022-11-14T08:03:16;96156.84;;;5.07;100.00
12626;BME280;6378;42.684;23.372;2022-11-14T08:05:42;96156.44;;;5.19;100.00
12626;BME280;6378;42.684;23.372;2022-11-14T08:08:07;96152.41;;;5.21;100.00
12626;BME280;6378;42.684;23.372;2022-11-14T08:10:33;96152.38;;;5.27;100.00
12626;BME280;6378;42.684;23.372;2022-11-14T08:12:59;96150.50;;;5.27;100.00
12626;BME280;6378;42.684;23.372;2022-11-14T08:15:26;96150.56;;;5.22;100.00
12626;BME280;6378;42.684;23.372;2022-11-14T08:17:51;96153.53;;;5.15;100.00
12626;BME280;6378;42.684;23.372;2022-11-14T08:20:17;96154.97;;;5.08;100.00
12626;BME280;6378;42.684;23.372;2022-11-14T08:22:43;96153.59;;;5.10;100.00
12626;BME280;6378;42.684;23.372;2022-11-14T08:25:08;96145.81;;;5.14;100.00
12626;BME280;6378;42.684;23.372;2022-11-14T08:27:33;96146.34;;;5.16;100.00
12626;BME280;6378;42.684;23.372;2022-11-14T08:29:59;96151.63;;;5.21;100.00
12626;BME280;6378;42.684;23.372;2022-11-14T08:32:24;96151.28;;;5.28;100.00
12626;BME280;6378;42.684;23.372;2022-11-14T08:34:50;96148.66;;;5.46;100.00
12626;BME280;6378;42.684;23.372;2022-11-14T08:37:15;96138.81;;;5.65;100.00
12626;BME280;6378;42.684;23.372;2022-11-14T08:39:41;96138.28;;;5.63;100.00
12626;BME280;6378;42.684;23.372;2022-11-14T08:42:06;96141.91;;;5.73;100.00
12626;BME280;6378;42.684;23.372;2022-11-14T08:44:31;96132.81;;;5.74;100.00
12626;BME280;6378;42.684;23.372;2022-11-14T08:46:57;96136.56;;;5.73;100.00
12626;BME280;6378;42.684;23.372;2022-11-14T08:49:24;96129.47;;;5.44;100.00
12626;BME280;6378;42.684;23.372;2022-11-14T08:51:53;96133.00;;;5.58;100.00
12626;BME280;6378;42.684;23.372;2022-11-14T08:54:18;96128.81;;;5.52;100.00
12626;BME280;6378;42.684;23.372;2022-11-14T08:56:44;96126.44;;;5.51;100.00
12626;BME280;6378;42.684;23.372;2022-11-14T08:59:09;96120.88;;;5.47;100.00
12626;BME280;6378;42.684;23.372;2022-11-14T09:01:35;96121.53;;;5.58;100.00
12626;BME280;6378;42.684;23.372;2022-11-14T09:04:00;96107.63;;;5.61;100.00
12626;BME280;6378;42.684;23.372;2022-11-14T09:06:26;96112.63;;;5.86;100.00
12626;BME280;6378;42.684;23.372;2022-11-14T09:08:51;96112.72;;;6.00;100.00
12626;BME280;6378;42.684;23.372;2022-11-14T09:11:17;96067.84;;;5.78;100.00
12626;BME280;6378;42.684;23.372;2022-11-14T09:13:42;96098.38;;;5.96;100.00
12626;BME280;6378;42.684;23.372;2022-11-14T09:16:07;96100.25;;;5.95;100.00
12626;BME280;6378;42.684;23.372;2022-11-14T09:18:33;96094.16;;;6.08;100.00
12626;BME280;6378;42.684;23.372;2022-11-14T09:21:04;96091.03;;;6.20;100.00
12626;BME280;6378;42.684;23.372;2022-11-14T09:23:30;96088.69;;;6.32;100.00
12626;BME280;6378;42.684;23.372;2022-11-14T09:25:55;96092.28;;;6.09;100.00
12626;BME280;6378;42.684;23.372;2022-11-14T09:28:22;96076.53;;;5.89;100.00
12626;BME280;6378;42.684;23.372;2022-11-14T09:30:48;96086.16;;;5.90;100.00
12626;BME280;6378;42.684;23.372;2022-11-14T09:33:13;96053.47;;;5.74;100.00
12626;BME280;6378;42.684;23.372;2022-11-14T09:35:39;96073.81;;;5.94;100.00
12626;BME280;6378;42.684;23.372;2022-11-14T09:38:07;96079.66;;;5.96;100.00
12626;BME280;6378;42.684;23.372;2022-11-14T09:46:37;96082.19;;;6.38;100.00
12626;BME280;6378;42.684;23.372;2022-11-14T09:49:08;96082.75;;;6.54;100.00
12626;BME280;6378;42.684;23.372;2022-11-14T09:51:42;96072.78;;;6.73;100.00
12626;BME280;6378;42.684;23.372;2022-11-14T09:54:26;96068.59;;;6.81;100.00
12626;BME280;6378;42.684;23.372;2022-11-14T09:56:53;96034.00;;;6.84;100.00
12626;BME280;6378;42.684;23.372;2022-11-14T09:59:18;96063.75;;;7.10;100.00
12626;BME280;6378;42.684;23.372;2022-11-14T10:02:12;96051.97;;;7.25;100.00
12626;BME280;6378;42.684;23.372;2022-11-14T10:05:02;96045.19;;;7.55;100.00
12626;BME280;6378;42.684;23.372;2022-11-14T10:15:45;96034.69;;;7.31;100.00
12626;BME280;6378;42.684;23.372;2022-11-14T10:21:37;96027.00;;;7.65;100.00
12626;BME280;6378;42.684;23.372;2022-11-14T10:24:18;96017.81;;;7.44;100.00
12626;BME280;6378;42.684;23.372;2022-11-14T10:26:59;96010.56;;;7.45;100.00
12626;BME280;6378;42.684;23.372;2022-11-14T10:29:33;96016.53;;;7.77;100.00
12626;BME280;6378;42.684;23.372;2022-11-14T10:34:58;95992.66;;;8.12;100.00
12626;BME280;6378;42.684;23.372;2022-11-14T10:37:34;95990.28;;;8.10;100.00
12626;BME280;6378;42.684;23.372;2022-11-14T10:40:16;95990.16;;;7.93;100.00
12626;BME280;6378;42.684;23.372;2022-11-14T10:42:45;95985.16;;;8.22;100.00
12626;BME280;6378;42.684;23.372;2022-11-14T10:45:34;95977.72;;;8.42;100.00
12626;BME280;6378;42.684;23.372;2022-11-14T10:48:08;95968.53;;;8.34;100.00
12626;BME280;6378;42.684;23.372;2022-11-14T10:50:45;95960.41;;;8.25;100.00
12626;BME280;6378;42.684;23.372;2022-11-14T10:53:22;95960.66;;;8.38;100.00
12626;BME280;6378;42.684;23.372;2022-11-14T10:55:49;95955.25;;;8.60;100.00
12626;BME280;6378;42.684;23.372;2022-11-14T10:58:15;95925.72;;;8.60;100.00
12626;BME280;6378;42.684;23.372;2022-11-14T11:00:41;95940.81;;;8.87;100.00
12626;BME280;6378;42.684;23.372;2022-11-14T11:03:06;95926.44;;;8.91;100.00
12626;BME280;6378;42.684;23.372;2022-11-14T11:05:44;95944.44;;;8.99;100.00
12626;BME280;6378;42.684;23.372;2022-11-14T11:08:10;95938.63;;;8.97;100.00
12626;BME280;6378;42.684;23.372;2022-11-14T11:10:57;95945.53;;;8.90;100.00
12626;BME280;6378;42.684;23.372;2022-11-14T11:13:56;95936.16;;;8.70;100.00
12626;BME280;6378;42.684;23.372;2022-11-14T11:16:23;95942.03;;;8.72;100.00
12626;BME280;6378;42.684;23.372;2022-11-14T11:18:50;95936.78;;;8.67;100.00
12626;BME280;6378;42.684;23.372;2022-11-14T11:21:18;95935.09;;;8.80;100.00
12626;BME280;6378;42.684;23.372;2022-11-14T11:26:19;95935.59;;;8.90;100.00
12626;BME280;6378;42.684;23.372;2022-11-14T11:29:01;95926.63;;;9.03;100.00
12626;BME280;6378;42.684;23.372;2022-11-14T11:31:27;95918.28;;;9.13;100.00
12626;BME280;6378;42.684;23.372;2022-11-14T11:34:12;95915.75;;;9.26;100.00
12626;BME280;6378;42.684;23.372;2022-11-14T11:36:45;95914.34;;;9.37;100.00
12626;BME280;6378;42.684;23.372;2022-11-14T11:39:22;95915.13;;;9.46;100.00
12626;BME280;6378;42.684;23.372;2022-11-14T11:41:48;95911.81;;;9.40;100.00
12626;BME280;6378;42.684;23.372;2022-11-14T11:44:17;95913.25;;;9.38;100.00
12626;BME280;6378;42.684;23.372;2022-11-14T11:46:56;95913.69;;;9.48;100.00
12626;BME280;6378;42.684;23.372;2022-11-14T11:52:04;95898.72;;;9.47;100.00
12626;BME280;6378;42.684;23.372;2022-11-14T11:54:44;95899.78;;;9.64;100.00
12626;BME280;6378;42.684;23.372;2022-11-14T11:57:15;95892.19;;;9.74;100.00
12626;BME280;6378;42.684;23.372;2022-11-14T11:59:48;95884.59;;;9.85;100.00
12626;BME280;6378;42.684;23.372;2022-11-14T12:02:20;95888.53;;;9.96;100.00
12626;BME280;6378;42.684;23.372;2022-11-14T12:04:46;95884.84;;;10.09;100.00
12626;BME280;6378;42.684;23.372;2022-11-14T12:07:37;95895.28;;;10.11;100.00
12626;BME280;6378;42.684;23.372;2022-11-14T12:10:06;95885.47;;;10.15;100.00
12626;BME280;6378;42.684;23.372;2022-11-14T12:20:38;95874.25;;;10.89;100.00
12626;BME280;6378;42.684;23.372;2022-11-14T12:23:34;95874.84;;;10.94;100.00
12626;BME280;6378;42.684;23.372;2022-11-14T12:32:09;95849.16;;;10.97;100.00
12626;BME280;6378;42.684;23.372;2022-11-14T12:34:40;95849.06;;;10.84;100.00
12626;BME280;6378;42.684;23.372;2022-11-14T12:37:17;95848.13;;;10.80;100.00
12626;BME280;6378;42.684;23.372;2022-11-14T12:39:56;95826.94;;;10.79;100.00
12626;BME280;6378;42.684;23.372;2022-11-14T12:42:23;95845.47;;;11.01;100.00
12626;BME280;6378;42.684;23.372;2022-11-14T12:44:48;95842.97;;;11.17;100.00
12626;BME280;6378;42.684;23.372;2022-11-14T12:47:22;95835.00;;;11.20;100.00
12626;BME280;6378;42.684;23.372;2022-11-14T12:55:00;95832.31;;;11.41;100.00
12626;BME280;6378;42.684;23.372;2022-11-14T13:00:12;95802.66;;;11.41;100.00
12626;BME280;6378;42.684;23.372;2022-11-14T13:05:42;95827.16;;;12.14;100.00
12626;BME280;6378;42.684;23.372;2022-11-14T13:11:46;95822.22;;;12.65;100.00
12626;BME280;6378;42.684;23.372;2022-11-14T13:14:31;95815.59;;;12.74;100.00
12626;BME280;6378;42.684;23.372;2022-11-14T13:17:31;95785.75;;;12.46;100.00
12626;BME280;6378;42.684;23.372;2022-11-14T13:34:23;95787.94;;;12.41;100.00
12626;BME280;6378;42.684;23.372;2022-11-14T13:36:54;95788.69;;;12.53;100.00
12626;BME280;6378;42.684;23.372;2022-11-14T13:48:30;95795.47;;;12.35;100.00
12626;BME280;6378;42.684;23.372;2022-11-14T13:51:04;95782.31;;;12.46;100.00
12626;BME280;6378;42.684;23.372;2022-11-14T13:53:31;95806.34;;;12.75;100.00
12626;BME280;6378;42.684;23.372;2022-11-14T14:09:14;95784.00;;;12.26;100.00
12626;BME280;6378;42.684;23.372;2022-11-14T14:17:29;95759.56;;;11.86;100.00
12626;BME280;6378;42.684;23.372;2022-11-14T14:20:20;95772.38;;;11.89;100.00
12626;BME280;6378;42.684;23.372;2022-11-14T14:33:39;95782.22;;;11.40;100.00
12626;BME280;6378;42.684;23.372;2022-11-14T14:36:25;95782.25;;;11.19;100.00
12626;BME280;6378;42.684;23.372;2022-11-14T14:39:16;95781.72;;;11.26;100.00
12626;BME280;6378;42.684;23.372;2022-11-14T14:41:42;95763.22;;;11.04;100.00
12626;BME280;6378;42.684;23.372;2022-11-14T14:44:30;95774.03;;;11.16;100.00
12626;BME280;6378;42.684;23.372;2022-11-14T14:46:57;95751.69;;;10.95;100.00
12626;BME280;6378;42.684;23.372;2022-11-14T14:49:35;95778.72;;;11.07;100.00
12626;BME280;6378;42.684;23.372;2022-11-14T14:52:01;95769.91;;;10.98;100.00
12626;BME280;6378;42.684;23.372;2022-11-14T14:54:28;95771.31;;;11.04;100.00
12626;BME280;6378;42.684;23.372;2022-11-14T14:56:58;95771.94;;;11.01;100.00